sensor_id;sensor_type;location;lat;lon;timestamp;P1;durP1;ratioP1;P2;durP2;ratioP2
1346;SDS011;667;48.796;9.480;2022-09-03T00:00:11;2.87;;;2.67;;
1346;SDS011;667;48.796;9.480;2022-09-03T00:02:51;2.77;;;2.57;;
1346;SDS011;667;48.796;9.480;2022-09-03T00:05:46;2.93;;;2.73;;
1346;SDS011;667;48.796;9.480;2022-09-03T00:08:38;2.80;;;2.60;;
1346;SDS011;667;48.796;9.480;2022-09-03T00:17:06;3.10;;;2.90;;
1346;SDS011;667;48.796;9.480;2022-09-03T00:19:59;2.70;;;2.50;;
1346;SDS011;667;48.796;9.480;2022-09-03T00:22:53;2.70;;;2.50;;
1346;SDS011;667;48.796;9.480;2022-09-03T00:25:20;2.73;;;2.53;;
1346;SDS011;667;48.796;9.480;2022-09-03T00:27:50;2.70;;;2.50;;
1346;SDS011;667;48.796;9.480;2022-09-03T00:30:19;2.70;;;2.40;;
1346;SDS011;667;48.796;9.480;2022-09-03T00:35:32;3.07;;;2.87;;
1346;SDS011;667;48.796;9.480;2022-09-03T00:38:19;5.00;;;2.40;;
1346;SDS011;667;48.796;9.480;2022-09-03T00:49:27;2.60;;;2.40;;
1346;SDS011;667;48.796;9.480;2022-09-03T01:00:15;3.10;;;2.90;;
1346;SDS011;667;48.796;9.480;2022-09-03T01:08:08;5.03;;;2.70;;
1346;SDS011;667;48.796;9.480;2022-09-03T01:19:03;2.50;;;2.30;;
1346;SDS011;667;48.796;9.480;2022-09-03T01:29:39;2.80;;;2.60;;
1346;SDS011;667;48.796;9.480;2022-09-03T01:32:10;2.40;;;2.27;;
1346;SDS011;667;48.796;9.480;2022-09-03T01:37:44;3.07;;;2.77;;
1346;SDS011;667;48.796;9.480;2022-09-03T01:46:09;2.83;;;2.63;;
1346;SDS011;667;48.796;9.480;2022-09-03T01:48:44;2.63;;;2.43;;
1346;SDS011;667;48.796;9.480;2022-09-03T01:51:31;3.70;;;2.80;;
1346;SDS011;667;48.796;9.480;2022-09-03T01:54:19;2.93;;;2.63;;
1346;SDS011;667;48.796;9.480;2022-09-03T02:00:12;3.90;;;2.87;;
1346;SDS011;667;48.796;9.480;2022-09-03T02:02:31;2.43;;;2.27;;
1346;SDS011;667;48.796;9.480;2022-09-03T02:07:30;3.23;;;2.70;;
1346;SDS011;667;48.796;9.480;2022-09-03T02:10:00;2.97;;;2.77;;
1346;SDS011;667;48.796;9.480;2022-09-03T02:12:30;3.13;;;2.60;;
1346;SDS011;667;48.796;9.480;2022-09-03T02:15:00;2.80;;;2.60;;
1346;SDS011;667;48.796;9.480;2022-09-03T02:17:28;2.90;;;2.23;;
1346;SDS011;667;48.796;9.480;2022-09-03T02:19:55;2.87;;;2.67;;
1346;SDS011;667;48.796;9.480;2022-09-03T02:22:22;2.83;;;2.63;;
1346;SDS011;667;48.796;9.480;2022-09-03T02:24:48;3.17;;;2.87;;
1346;SDS011;667;48.796;9.480;2022-09-03T02:27:13;2.23;;;2.03;;
1346;SDS011;667;48.796;9.480;2022-09-03T02:29:40;2.90;;;2.70;;
1346;SDS011;667;48.796;9.480;2022-09-03T02:32:06;4.20;;;3.00;;
1346;SDS011;667;48.796;9.480;2022-09-03T02:34:31;2.40;;;2.20;;
1346;SDS011;667;48.796;9.480;2022-09-03T02:36:57;3.00;;;2.30;;
1346;SDS011;667;48.796;9.480;2022-09-03T02:39:23;2.40;;;2.13;;
1346;SDS011;667;48.796;9.480;2022-09-03T02:41:50;2.50;;;2.20;;
1346;SDS011;667;48.796;9.480;2022-09-03T02:44:20;2.60;;;2.40;;
1346;SDS011;667;48.796;9.480;2022-09-03T02:49:24;3.00;;;2.53;;
1346;SDS011;667;48.796;9.480;2022-09-03T02:51:51;2.80;;;2.50;;
1346;SDS011;667;48.796;9.480;2022-09-03T02:54:21;6.70;;;2.80;;
1346;SDS011;667;48.796;9.480;2022-09-03T02:56:47;2.50;;;2.30;;
1346;SDS011;667;48.796;9.480;2022-09-03T02:59:13;2.60;;;2.40;;
1346;SDS011;667;48.796;9.480;2022-09-03T03:01:41;3.83;;;2.83;;
1346;SDS011;667;48.796;9.480;2022-09-03T03:04:07;3.03;;;2.73;;
1346;SDS011;667;48.796;9.480;2022-09-03T03:06:33;2.80;;;2.60;;
1346;SDS011;667;48.796;9.480;2022-09-03T03:08:58;2.43;;;2.23;;
1346;SDS011;667;48.796;9.480;2022-09-03T03:11:28;3.33;;;2.73;;
1346;SDS011;667;48.796;9.480;2022-09-03T03:13:54;5.60;;;2.67;;
1346;SDS011;667;48.796;9.480;2022-09-03T03:16:20;2.80;;;2.60;;
1346;SDS011;667;48.796;9.480;2022-09-03T03:18:45;3.10;;;2.80;;
1346;SDS011;667;48.796;9.480;2022-09-03T03:21:12;2.40;;;2.30;;
1346;SDS011;667;48.796;9.480;2022-09-03T03:23:40;2.33;;;2.23;;
1346;SDS011;667;48.796;9.480;2022-09-03T03:26:07;3.10;;;2.33;;
1346;SDS011;667;48.796;9.480;2022-09-03T03:28:34;2.40;;;2.30;;
1346;SDS011;667;48.796;9.480;2022-09-03T03:31:11;2.77;;;2.57;;
1346;SDS011;667;48.796;9.480;2022-09-03T03:33:38;2.80;;;2.20;;
1346;SDS011;667;48.796;9.480;2022-09-03T03:36:12;2.53;;;2.10;;
1346;SDS011;667;48.796;9.480;2022-09-03T03:38:39;3.10;;;2.90;;
1346;SDS011;667;48.796;9.480;2022-09-03T03:41:17;3.27;;;3.00;;
1346;SDS011;667;48.796;9.480;2022-09-03T03:43:43;2.60;;;2.40;;
1346;SDS011;667;48.796;9.480;2022-09-03T03:46:10;2.57;;;2.37;;
1346;SDS011;667;48.796;9.480;2022-09-03T03:48:36;2.73;;;2.60;;
1346;SDS011;667;48.796;9.480;2022-09-03T03:51:03;2.70;;;2.50;;
1346;SDS011;667;48.796;9.480;2022-09-03T03:53:31;3.40;;;2.47;;
1346;SDS011;667;48.796;9.480;2022-09-03T03:56:00;2.80;;;2.60;;
1346;SDS011;667;48.796;9.480;2022-09-03T03:58:30;3.33;;;2.90;;
1346;SDS011;667;48.796;9.480;2022-09-03T04:01:10;3.23;;;2.60;;
1346;SDS011;667;48.796;9.480;2022-09-03T04:03:38;5.37;;;2.57;;
1346;SDS011;667;48.796;9.480;2022-09-03T04:06:03;4.57;;;2.50;;
1346;SDS011;667;48.796;9.480;2022-09-03T04:08:32;2.73;;;2.57;;
1346;SDS011;667;48.796;9.480;2022-09-03T04:11:00;2.60;;;2.37;;
1346;SDS011;667;48.796;9.480;2022-09-03T04:13:30;2.93;;;2.73;;
1346;SDS011;667;48.796;9.480;2022-09-03T04:16:03;2.83;;;2.63;;
1346;SDS011;667;48.796;9.480;2022-09-03T04:18:32;2.93;;;2.73;;
1346;SDS011;667;48.796;9.480;2022-09-03T04:21:03;3.10;;;2.90;;
1346;SDS011;667;48.796;9.480;2022-09-03T04:23:37;2.43;;;2.30;;
1346;SDS011;667;48.796;9.480;2022-09-03T04:26:04;2.40;;;2.30;;
1346;SDS011;667;48.796;9.480;2022-09-03T04:28:31;4.80;;;2.97;;
1346;SDS011;667;48.796;9.480;2022-09-03T04:31:04;3.03;;;2.83;;
1346;SDS011;667;48.796;9.480;2022-09-03T04:33:32;3.00;;;2.80;;
1346;SDS011;667;48.796;9.480;2022-09-03T04:36:02;3.13;;;2.83;;
1346;SDS011;667;48.796;9.480;2022-09-03T04:38:29;3.90;;;2.73;;
1346;SDS011;667;48.796;9.480;2022-09-03T04:40:56;2.63;;;2.43;;
1346;SDS011;667;48.796;9.480;2022-09-03T04:43:23;2.77;;;2.57;;
1346;SDS011;667;48.796;9.480;2022-09-03T04:45:49;2.60;;;2.50;;
1346;SDS011;667;48.796;9.480;2022-09-03T04:48:15;2.90;;;2.70;;
1346;SDS011;667;48.796;9.480;2022-09-03T04:50:40;2.50;;;2.20;;
1346;SDS011;667;48.796;9.480;2022-09-03T04:53:06;3.03;;;2.83;;
1346;SDS011;667;48.796;9.480;2022-09-03T04:55:35;3.07;;;2.73;;
1346;SDS011;667;48.796;9.480;2022-09-03T04:58:02;2.87;;;2.67;;
1346;SDS011;667;48.796;9.480;2022-09-03T05:00:28;3.00;;;2.80;;
1346;SDS011;667;48.796;9.480;2022-09-03T05:02:54;3.33;;;3.03;;
1346;SDS011;667;48.796;9.480;2022-09-03T05:05:19;2.90;;;2.70;;
1346;SDS011;667;48.796;9.480;2022-09-03T05:07:45;2.93;;;2.40;;
1346;SDS011;667;48.796;9.480;2022-09-03T05:10:11;3.20;;;2.90;;
1346;SDS011;667;48.796;9.480;2022-09-03T05:12:44;2.73;;;2.53;;
1346;SDS011;667;48.796;9.480;2022-09-03T05:15:21;3.50;;;2.93;;
1346;SDS011;667;48.796;9.480;2022-09-03T05:17:47;2.97;;;2.80;;
1346;SDS011;667;48.796;9.480;2022-09-03T05:20:13;3.50;;;3.20;;
1346;SDS011;667;48.796;9.480;2022-09-03T05:22:38;3.50;;;3.20;;
1346;SDS011;667;48.796;9.480;2022-09-03T05:25:04;3.60;;;3.00;;
1346;SDS011;667;48.796;9.480;2022-09-03T05:27:30;3.30;;;3.10;;
1346;SDS011;667;48.796;9.480;2022-09-03T05:29:56;3.00;;;2.80;;
1346;SDS011;667;48.796;9.480;2022-09-03T05:32:21;3.37;;;3.07;;
1346;SDS011;667;48.796;9.480;2022-09-03T05:34:49;3.73;;;2.93;;
1346;SDS011;667;48.796;9.480;2022-09-03T05:37:14;2.97;;;2.77;;
1346;SDS011;667;48.796;9.480;2022-09-03T05:39:40;3.33;;;3.00;;
1346;SDS011;667;48.796;9.480;2022-09-03T05:42:05;3.40;;;3.10;;
1346;SDS011;667;48.796;9.480;2022-09-03T05:44:31;3.67;;;2.93;;
1346;SDS011;667;48.796;9.480;2022-09-03T05:46:57;3.10;;;2.90;;
1346;SDS011;667;48.796;9.480;2022-09-03T05:49:22;3.17;;;2.93;;
1346;SDS011;667;48.796;9.480;2022-09-03T05:51:49;3.40;;;2.90;;
1346;SDS011;667;48.796;9.480;2022-09-03T05:54:14;5.30;;;3.10;;
1346;SDS011;667;48.796;9.480;2022-09-03T05:56:40;3.13;;;2.93;;
1346;SDS011;667;48.796;9.480;2022-09-03T05:59:06;2.90;;;2.70;;
1346;SDS011;667;48.796;9.480;2022-09-03T06:01:37;2.80;;;2.60;;
1346;SDS011;667;48.796;9.480;2022-09-03T06:04:05;3.27;;;3.00;;
1346;SDS011;667;48.796;9.480;2022-09-03T06:06:33;3.90;;;2.93;;
1346;SDS011;667;48.796;9.480;2022-09-03T06:09:04;3.07;;;2.87;;
1346;SDS011;667;48.796;9.480;2022-09-03T06:11:31;3.27;;;3.07;;
1346;SDS011;667;48.796;9.480;2022-09-03T06:13:59;3.20;;;2.87;;
1346;SDS011;667;48.796;9.480;2022-09-03T06:16:27;2.83;;;2.60;;
1346;SDS011;667;48.796;9.480;2022-09-03T06:18:53;2.70;;;2.50;;
1346;SDS011;667;48.796;9.480;2022-09-03T06:21:20;3.23;;;3.03;;
1346;SDS011;667;48.796;9.480;2022-09-03T06:23:49;3.10;;;2.80;;
1346;SDS011;667;48.796;9.480;2022-09-03T06:26:16;3.90;;;2.70;;
1346;SDS011;667;48.796;9.480;2022-09-03T06:28:42;3.53;;;3.23;;
1346;SDS011;667;48.796;9.480;2022-09-03T06:31:09;3.20;;;3.00;;
1346;SDS011;667;48.796;9.480;2022-09-03T06:33:37;3.40;;;3.10;;
1346;SDS011;667;48.796;9.480;2022-09-03T06:36:05;4.27;;;3.00;;
1346;SDS011;667;48.796;9.480;2022-09-03T06:38:32;3.00;;;2.80;;
1346;SDS011;667;48.796;9.480;2022-09-03T06:41:02;3.67;;;2.90;;
1346;SDS011;667;48.796;9.480;2022-09-03T06:43:30;4.33;;;3.23;;
1346;SDS011;667;48.796;9.480;2022-09-03T06:48:25;5.50;;;2.93;;
1346;SDS011;667;48.796;9.480;2022-09-03T06:50:55;3.80;;;3.50;;
1346;SDS011;667;48.796;9.480;2022-09-03T06:53:25;3.23;;;3.03;;
1346;SDS011;667;48.796;9.480;2022-09-03T06:55:54;3.40;;;2.70;;
1346;SDS011;667;48.796;9.480;2022-09-03T06:58:20;4.23;;;2.90;;
1346;SDS011;667;48.796;9.480;2022-09-03T07:00:47;4.03;;;3.00;;
1346;SDS011;667;48.796;9.480;2022-09-03T07:03:13;3.13;;;2.80;;
1346;SDS011;667;48.796;9.480;2022-09-03T07:05:41;3.20;;;2.90;;
1346;SDS011;667;48.796;9.480;2022-09-03T07:08:08;3.37;;;3.10;;
1346;SDS011;667;48.796;9.480;2022-09-03T07:10:35;3.33;;;3.03;;
1346;SDS011;667;48.796;9.480;2022-09-03T07:13:01;3.00;;;2.80;;
1346;SDS011;667;48.796;9.480;2022-09-03T07:15:27;3.00;;;2.80;;
1346;SDS011;667;48.796;9.480;2022-09-03T07:17:53;3.73;;;3.43;;
1346;SDS011;667;48.796;9.480;2022-09-03T07:20:19;3.77;;;3.37;;
1346;SDS011;667;48.796;9.480;2022-09-03T07:22:45;3.17;;;2.97;;
1346;SDS011;667;48.796;9.480;2022-09-03T07:25:10;3.57;;;3.23;;
1346;SDS011;667;48.796;9.480;2022-09-03T07:27:36;3.23;;;2.93;;
1346;SDS011;667;48.796;9.480;2022-09-03T07:30:01;5.63;;;3.83;;
1346;SDS011;667;48.796;9.480;2022-09-03T07:32:27;4.27;;;3.30;;
1346;SDS011;667;48.796;9.480;2022-09-03T07:34:53;4.90;;;3.60;;
1346;SDS011;667;48.796;9.480;2022-09-03T07:37:19;3.63;;;3.30;;
1346;SDS011;667;48.796;9.480;2022-09-03T07:39:44;6.10;;;3.30;;
1346;SDS011;667;48.796;9.480;2022-09-03T07:42:10;3.43;;;3.07;;
1346;SDS011;667;48.796;9.480;2022-09-03T07:44:36;3.87;;;3.53;;
1346;SDS011;667;48.796;9.480;2022-09-03T07:47:01;3.80;;;3.50;;
1346;SDS011;667;48.796;9.480;2022-09-03T07:49:27;3.93;;;3.63;;
1346;SDS011;667;48.796;9.480;2022-09-03T07:51:53;3.73;;;3.43;;
1346;SDS011;667;48.796;9.480;2022-09-03T07:54:19;3.40;;;3.20;;
1346;SDS011;667;48.796;9.480;2022-09-03T07:56:45;3.23;;;3.03;;
1346;SDS011;667;48.796;9.480;2022-09-03T07:59:11;4.33;;;3.80;;
1346;SDS011;667;48.796;9.480;2022-09-03T08:01:37;3.87;;;3.57;;
1346;SDS011;667;48.796;9.480;2022-09-03T08:04:03;4.30;;;3.97;;
1346;SDS011;667;48.796;9.480;2022-09-03T08:06:31;4.23;;;3.93;;
1346;SDS011;667;48.796;9.480;2022-09-03T08:08:58;4.30;;;3.93;;
1346;SDS011;667;48.796;9.480;2022-09-03T08:11:29;4.10;;;3.70;;
1346;SDS011;667;48.796;9.480;2022-09-03T08:13:57;4.60;;;4.17;;
1346;SDS011;667;48.796;9.480;2022-09-03T08:16:26;6.63;;;4.20;;
1346;SDS011;667;48.796;9.480;2022-09-03T08:18:54;3.97;;;3.67;;
1346;SDS011;667;48.796;9.480;2022-09-03T08:21:20;4.60;;;4.30;;
1346;SDS011;667;48.796;9.480;2022-09-03T08:23:47;4.60;;;4.20;;
1346;SDS011;667;48.796;9.480;2022-09-03T08:26:15;3.70;;;3.40;;
1346;SDS011;667;48.796;9.480;2022-09-03T08:28:42;3.50;;;3.30;;
1346;SDS011;667;48.796;9.480;2022-09-03T08:31:12;4.13;;;3.77;;
1346;SDS011;667;48.796;9.480;2022-09-03T08:33:47;3.70;;;3.40;;
1346;SDS011;667;48.796;9.480;2022-09-03T08:36:16;4.00;;;3.70;;
1346;SDS011;667;48.796;9.480;2022-09-03T08:38:43;4.03;;;3.73;;
1346;SDS011;667;48.796;9.480;2022-09-03T08:44:24;7.43;;;4.37;;
1346;SDS011;667;48.796;9.480;2022-09-03T08:49:55;4.10;;;3.80;;
1346;SDS011;667;48.796;9.480;2022-09-03T08:57:52;4.97;;;4.47;;
1346;SDS011;667;48.796;9.480;2022-09-03T09:00:45;4.00;;;3.70;;
1346;SDS011;667;48.796;9.480;2022-09-03T09:05:57;4.33;;;3.87;;
1346;SDS011;667;48.796;9.480;2022-09-03T09:08:34;5.00;;;4.50;;
1346;SDS011;667;48.796;9.480;2022-09-03T09:17:21;3.97;;;3.53;;
1346;SDS011;667;48.796;9.480;2022-09-03T09:22:56;4.60;;;4.20;;
1346;SDS011;667;48.796;9.480;2022-09-03T09:25:26;4.20;;;3.80;;
1346;SDS011;667;48.796;9.480;2022-09-03T09:28:00;4.27;;;3.97;;
1346;SDS011;667;48.796;9.480;2022-09-03T09:30:39;4.37;;;4.07;;
1346;SDS011;667;48.796;9.480;2022-09-03T09:33:06;4.43;;;4.03;;
1346;SDS011;667;48.796;9.480;2022-09-03T09:35:31;4.13;;;3.83;;
1346;SDS011;667;48.796;9.480;2022-09-03T09:37:57;4.20;;;3.90;;
1346;SDS011;667;48.796;9.480;2022-09-03T09:40:28;4.00;;;3.80;;
1346;SDS011;667;48.796;9.480;2022-09-03T09:43:09;4.07;;;3.77;;
1346;SDS011;667;48.796;9.480;2022-09-03T09:45:36;4.60;;;4.20;;
1346;SDS011;667;48.796;9.480;2022-09-03T09:48:06;3.93;;;3.63;;
1346;SDS011;667;48.796;9.480;2022-09-03T09:50:45;4.67;;;4.37;;
1346;SDS011;667;48.796;9.480;2022-09-03T09:53:11;4.67;;;3.67;;
1346;SDS011;667;48.796;9.480;2022-09-03T09:55:56;3.73;;;3.30;;
1346;SDS011;667;48.796;9.480;2022-09-03T09:58:25;4.17;;;3.87;;
1346;SDS011;667;48.796;9.480;2022-09-03T10:01:04;4.30;;;3.90;;
1346;SDS011;667;48.796;9.480;2022-09-03T10:03:57;4.20;;;3.93;;
1346;SDS011;667;48.796;9.480;2022-09-03T10:06:26;4.10;;;3.80;;
1346;SDS011;667;48.796;9.480;2022-09-03T10:09:13;4.27;;;3.50;;
1346;SDS011;667;48.796;9.480;2022-09-03T10:11:44;3.90;;;3.60;;
1346;SDS011;667;48.796;9.480;2022-09-03T10:14:36;3.77;;;3.50;;
1346;SDS011;667;48.796;9.480;2022-09-03T10:17:18;4.40;;;4.00;;
1346;SDS011;667;48.796;9.480;2022-09-03T10:20:00;3.77;;;3.57;;
1346;SDS011;667;48.796;9.480;2022-09-03T10:25:20;4.10;;;3.83;;
1346;SDS011;667;48.796;9.480;2022-09-03T10:27:50;4.97;;;4.00;;
1346;SDS011;667;48.796;9.480;2022-09-03T10:30:18;3.70;;;3.40;;
1346;SDS011;667;48.796;9.480;2022-09-03T10:32:46;4.10;;;3.60;;
1346;SDS011;667;48.796;9.480;2022-09-03T10:35:34;3.60;;;3.40;;
1346;SDS011;667;48.796;9.480;2022-09-03T10:46:26;4.53;;;4.23;;
1346;SDS011;667;48.796;9.480;2022-09-03T10:48:57;4.13;;;3.83;;
1346;SDS011;667;48.796;9.480;2022-09-03T10:52:15;3.43;;;3.23;;
1346;SDS011;667;48.796;9.480;2022-09-03T10:58:15;3.90;;;3.60;;
1346;SDS011;667;48.796;9.480;2022-09-03T11:00:57;4.13;;;3.73;;
1346;SDS011;667;48.796;9.480;2022-09-03T11:06:51;3.97;;;3.67;;
1346;SDS011;667;48.796;9.480;2022-09-03T11:09:24;4.23;;;3.93;;
1346;SDS011;667;48.796;9.480;2022-09-03T11:12:05;4.87;;;3.87;;
1346;SDS011;667;48.796;9.480;2022-09-03T11:14:39;4.27;;;3.87;;
1346;SDS011;667;48.796;9.480;2022-09-03T11:17:26;4.43;;;4.03;;
1346;SDS011;667;48.796;9.480;2022-09-03T11:19:58;4.17;;;3.90;;
1346;SDS011;667;48.796;9.480;2022-09-03T11:22:49;4.93;;;3.87;;
1346;SDS011;667;48.796;9.480;2022-09-03T11:25:19;4.23;;;3.93;;
1346;SDS011;667;48.796;9.480;2022-09-03T11:28:06;5.10;;;4.30;;
1346;SDS011;667;48.796;9.480;2022-09-03T11:33:53;4.00;;;3.70;;
1346;SDS011;667;48.796;9.480;2022-09-03T11:36:30;4.00;;;3.70;;
1346;SDS011;667;48.796;9.480;2022-09-03T11:38:58;3.90;;;3.60;;
1346;SDS011;667;48.796;9.480;2022-09-03T11:41:27;4.50;;;4.20;;
1346;SDS011;667;48.796;9.480;2022-09-03T11:45:11;4.47;;;4.17;;
1346;SDS011;667;48.796;9.480;2022-09-03T11:47:11;3.97;;;3.67;;
1346;SDS011;667;48.796;9.480;2022-09-03T11:49:44;3.87;;;3.60;;
1346;SDS011;667;48.796;9.480;2022-09-03T11:52:11;4.37;;;4.00;;
1346;SDS011;667;48.796;9.480;2022-09-03T11:54:44;4.13;;;3.77;;
1346;SDS011;667;48.796;9.480;2022-09-03T11:57:11;3.50;;;3.30;;
1346;SDS011;667;48.796;9.480;2022-09-03T11:59:42;3.80;;;3.50;;
1346;SDS011;667;48.796;9.480;2022-09-03T12:07:28;4.20;;;3.90;;
1346;SDS011;667;48.796;9.480;2022-09-03T12:10:16;3.80;;;3.60;;
1346;SDS011;667;48.796;9.480;2022-09-03T12:18:12;4.20;;;3.80;;
1346;SDS011;667;48.796;9.480;2022-09-03T12:20:43;4.53;;;4.13;;
1346;SDS011;667;48.796;9.480;2022-09-03T12:23:11;4.23;;;3.93;;
1346;SDS011;667;48.796;9.480;2022-09-03T12:25:45;4.53;;;4.13;;
1346;SDS011;667;48.796;9.480;2022-09-03T12:28:11;4.53;;;4.23;;
1346;SDS011;667;48.796;9.480;2022-09-03T12:30:43;4.07;;;3.77;;
1346;SDS011;667;48.796;9.480;2022-09-03T12:33:10;4.17;;;3.77;;
1346;SDS011;667;48.796;9.480;2022-09-03T12:35:41;4.27;;;3.97;;
1346;SDS011;667;48.796;9.480;2022-09-03T12:38:07;5.33;;;4.93;;
1346;SDS011;667;48.796;9.480;2022-09-03T12:40:39;5.23;;;4.53;;
1346;SDS011;667;48.796;9.480;2022-09-03T12:43:14;3.80;;;3.50;;
1346;SDS011;667;48.796;9.480;2022-09-03T12:45:46;2.43;;;2.23;;
1346;SDS011;667;48.796;9.480;2022-09-03T12:48:16;2.27;;;2.17;;
1346;SDS011;667;48.796;9.480;2022-09-03T12:50:43;2.40;;;2.20;;
1346;SDS011;667;48.796;9.480;2022-09-03T12:53:11;3.17;;;2.20;;
1346;SDS011;667;48.796;9.480;2022-09-03T12:55:52;2.33;;;1.90;;
1346;SDS011;667;48.796;9.480;2022-09-03T13:01:27;2.50;;;1.70;;
1346;SDS011;667;48.796;9.480;2022-09-03T13:06:27;2.57;;;2.17;;
1346;SDS011;667;48.796;9.480;2022-09-03T13:08:58;2.30;;;2.10;;
1346;SDS011;667;48.796;9.480;2022-09-03T13:11:33;2.23;;;2.03;;
1346;SDS011;667;48.796;9.480;2022-09-03T13:14:07;2.33;;;1.87;;
1346;SDS011;667;48.796;9.480;2022-09-03T13:21:43;2.33;;;1.67;;
1346;SDS011;667;48.796;9.480;2022-09-03T13:27:22;2.43;;;1.80;;
1346;SDS011;667;48.796;9.480;2022-09-03T13:30:18;3.10;;;2.80;;
1346;SDS011;667;48.796;9.480;2022-09-03T13:35:48;2.00;;;1.80;;
1346;SDS011;667;48.796;9.480;2022-09-03T13:52:16;2.63;;;2.00;;
1346;SDS011;667;48.796;9.480;2022-09-03T13:54:56;4.63;;;2.20;;
1346;SDS011;667;48.796;9.480;2022-09-03T14:00:22;2.57;;;1.90;;
1346;SDS011;667;48.796;9.480;2022-09-03T14:03:02;4.50;;;1.70;;
1346;SDS011;667;48.796;9.480;2022-09-03T14:11:45;2.57;;;1.90;;
1346;SDS011;667;48.796;9.480;2022-09-03T14:16:41;2.50;;;1.70;;
1346;SDS011;667;48.796;9.480;2022-09-03T14:19:35;1.63;;;1.53;;
1346;SDS011;667;48.796;9.480;2022-09-03T14:24:57;2.53;;;1.90;;
1346;SDS011;667;48.796;9.480;2022-09-03T14:27:27;3.13;;;2.03;;
1346;SDS011;667;48.796;9.480;2022-09-03T14:30:02;2.40;;;1.40;;
1346;SDS011;667;48.796;9.480;2022-09-03T14:32:33;2.00;;;1.50;;
1346;SDS011;667;48.796;9.480;2022-09-03T14:40:39;1.83;;;1.50;;
1346;SDS011;667;48.796;9.480;2022-09-03T14:45:58;2.37;;;1.50;;
1346;SDS011;667;48.796;9.480;2022-09-03T14:57:01;1.97;;;1.13;;
1346;SDS011;667;48.796;9.480;2022-09-03T15:07:58;2.23;;;1.20;;
1346;SDS011;667;48.796;9.480;2022-09-03T15:10:31;2.17;;;1.20;;
1346;SDS011;667;48.796;9.480;2022-09-03T15:13:16;1.90;;;1.53;;
1346;SDS011;667;48.796;9.480;2022-09-03T15:23:40;2.70;;;1.40;;
1346;SDS011;667;48.796;9.480;2022-09-03T15:26:34;1.57;;;1.47;;
1346;SDS011;667;48.796;9.480;2022-09-03T15:37:13;1.47;;;1.37;;
1346;SDS011;667;48.796;9.480;2022-09-03T15:39:45;1.73;;;1.40;;
1346;SDS011;667;48.796;9.480;2022-09-03T15:42:22;2.00;;;1.40;;
1346;SDS011;667;48.796;9.480;2022-09-03T15:44:55;1.50;;;1.30;;
1346;SDS011;667;48.796;9.480;2022-09-03T15:47:47;1.67;;;1.57;;
1346;SDS011;667;48.796;9.480;2022-09-03T15:50:24;1.30;;;1.20;;
1346;SDS011;667;48.796;9.480;2022-09-03T15:55:35;1.60;;;1.50;;
1346;SDS011;667;48.796;9.480;2022-09-03T16:00:50;1.67;;;1.40;;
1346;SDS011;667;48.796;9.480;2022-09-03T16:15:18;2.53;;;1.50;;
1346;SDS011;667;48.796;9.480;2022-09-03T16:17:52;2.17;;;1.50;;
1346;SDS011;667;48.796;9.480;2022-09-03T16:23:14;2.33;;;1.50;;
1346;SDS011;667;48.796;9.480;2022-09-03T16:25:57;1.47;;;1.30;;
1346;SDS011;667;48.796;9.480;2022-09-03T16:31:58;1.70;;;1.60;;
1346;SDS011;667;48.796;9.480;2022-09-03T16:43:00;2.30;;;1.33;;
1346;SDS011;667;48.796;9.480;2022-09-03T16:54:35;1.70;;;1.27;;
1346;SDS011;667;48.796;9.480;2022-09-03T16:59:53;2.03;;;1.70;;
1346;SDS011;667;48.796;9.480;2022-09-03T17:10:36;1.67;;;1.57;;
1346;SDS011;667;48.796;9.480;2022-09-03T17:16:42;1.47;;;1.33;;
1346;SDS011;667;48.796;9.480;2022-09-03T17:22:09;2.20;;;1.60;;
1346;SDS011;667;48.796;9.480;2022-09-03T17:48:53;2.20;;;2.00;;
1346;SDS011;667;48.796;9.480;2022-09-03T17:51:30;2.37;;;2.17;;
1346;SDS011;667;48.796;9.480;2022-09-03T17:54:03;2.50;;;2.30;;
1346;SDS011;667;48.796;9.480;2022-09-03T17:56:59;1.93;;;1.83;;
1346;SDS011;667;48.796;9.480;2022-09-03T18:02:29;1.60;;;1.50;;
1346;SDS011;667;48.796;9.480;2022-09-03T18:05:15;2.10;;;2.00;;
1346;SDS011;667;48.796;9.480;2022-09-03T18:10:31;2.90;;;1.60;;
1346;SDS011;667;48.796;9.480;2022-09-03T18:13:20;2.17;;;1.80;;
1346;SDS011;667;48.796;9.480;2022-09-03T18:16:14;2.23;;;2.03;;
1346;SDS011;667;48.796;9.480;2022-09-03T18:18:51;1.93;;;1.73;;
1346;SDS011;667;48.796;9.480;2022-09-03T18:21:23;2.10;;;1.97;;
1346;SDS011;667;48.796;9.480;2022-09-03T18:27:06;2.40;;;2.20;;
1346;SDS011;667;48.796;9.480;2022-09-03T18:29:57;2.60;;;2.40;;
1346;SDS011;667;48.796;9.480;2022-09-03T18:32:47;3.00;;;2.47;;
1346;SDS011;667;48.796;9.480;2022-09-03T18:35:31;3.43;;;3.23;;
1346;SDS011;667;48.796;9.480;2022-09-03T18:38:17;2.93;;;2.60;;
1346;SDS011;667;48.796;9.480;2022-09-03T18:41:18;4.63;;;2.50;;
1346;SDS011;667;48.796;9.480;2022-09-03T18:47:40;2.10;;;2.00;;
1346;SDS011;667;48.796;9.480;2022-09-03T18:50:34;2.20;;;2.00;;
1346;SDS011;667;48.796;9.480;2022-09-03T18:53:44;3.40;;;3.20;;
1346;SDS011;667;48.796;9.480;2022-09-03T18:56:49;3.93;;;3.63;;
1346;SDS011;667;48.796;9.480;2022-09-03T19:02:42;3.90;;;3.60;;
1346;SDS011;667;48.796;9.480;2022-09-03T19:08:24;4.70;;;3.20;;
1346;SDS011;667;48.796;9.480;2022-09-03T19:14:28;3.53;;;2.50;;
1346;SDS011;667;48.796;9.480;2022-09-03T19:17:32;3.43;;;3.10;;
1346;SDS011;667;48.796;9.480;2022-09-03T19:20:45;4.67;;;4.27;;
1346;SDS011;667;48.796;9.480;2022-09-03T19:23:40;3.30;;;3.03;;
1346;SDS011;667;48.796;9.480;2022-09-03T19:26:39;2.40;;;2.20;;
1346;SDS011;667;48.796;9.480;2022-09-03T19:32:39;6.27;;;5.70;;
1346;SDS011;667;48.796;9.480;2022-09-03T19:35:49;4.90;;;4.10;;
1346;SDS011;667;48.796;9.480;2022-09-03T19:41:49;2.10;;;1.90;;
1346;SDS011;667;48.796;9.480;2022-09-03T19:48:07;1.90;;;1.80;;
1346;SDS011;667;48.796;9.480;2022-09-03T19:51:18;4.90;;;4.33;;
1346;SDS011;667;48.796;9.480;2022-09-03T19:54:04;3.30;;;3.10;;
1346;SDS011;667;48.796;9.480;2022-09-03T19:56:52;2.90;;;2.60;;
1346;SDS011;667;48.796;9.480;2022-09-03T19:59:40;2.30;;;2.10;;
1346;SDS011;667;48.796;9.480;2022-09-03T20:02:27;3.10;;;1.90;;
1346;SDS011;667;48.796;9.480;2022-09-03T20:05:29;2.60;;;2.40;;
1346;SDS011;667;48.796;9.480;2022-09-03T20:08:15;2.60;;;2.40;;
1346;SDS011;667;48.796;9.480;2022-09-03T20:11:02;2.70;;;1.93;;
1346;SDS011;667;48.796;9.480;2022-09-03T20:13:38;4.83;;;2.10;;
1346;SDS011;667;48.796;9.480;2022-09-03T20:16:28;2.40;;;2.20;;
1346;SDS011;667;48.796;9.480;2022-09-03T20:19:03;2.53;;;2.30;;
1346;SDS011;667;48.796;9.480;2022-09-03T20:21:47;2.37;;;2.17;;
1346;SDS011;667;48.796;9.480;2022-09-03T20:27:33;3.03;;;2.83;;
1346;SDS011;667;48.796;9.480;2022-09-03T20:30:18;2.90;;;2.70;;
1346;SDS011;667;48.796;9.480;2022-09-03T20:49:35;2.67;;;2.47;;
1346;SDS011;667;48.796;9.480;2022-09-03T20:52:26;4.37;;;3.30;;
1346;SDS011;667;48.796;9.480;2022-09-03T20:55:04;4.00;;;3.70;;
1346;SDS011;667;48.796;9.480;2022-09-03T21:00:56;3.80;;;2.23;;
1346;SDS011;667;48.796;9.480;2022-09-03T21:09:11;3.50;;;3.20;;
1346;SDS011;667;48.796;9.480;2022-09-03T21:14:33;2.97;;;2.20;;
1346;SDS011;667;48.796;9.480;2022-09-03T21:25:13;5.60;;;2.27;;
1346;SDS011;667;48.796;9.480;2022-09-03T21:27:46;2.40;;;2.20;;
1346;SDS011;667;48.796;9.480;2022-09-03T21:30:15;2.50;;;2.20;;
1346;SDS011;667;48.796;9.480;2022-09-03T21:32:44;7.27;;;2.60;;
1346;SDS011;667;48.796;9.480;2022-09-03T21:35:17;2.70;;;2.50;;
1346;SDS011;667;48.796;9.480;2022-09-03T21:40:34;2.90;;;2.37;;
1346;SDS011;667;48.796;9.480;2022-09-03T21:48:37;2.87;;;2.67;;
1346;SDS011;667;48.796;9.480;2022-09-03T21:59:46;2.50;;;2.30;;
1346;SDS011;667;48.796;9.480;2022-09-03T22:02:33;2.80;;;2.60;;
1346;SDS011;667;48.796;9.480;2022-09-03T22:05:00;2.20;;;2.00;;
1346;SDS011;667;48.796;9.480;2022-09-03T22:15:21;2.60;;;2.40;;
1346;SDS011;667;48.796;9.480;2022-09-03T22:17:51;5.23;;;2.87;;
1346;SDS011;667;48.796;9.480;2022-09-03T22:20:30;2.33;;;2.13;;
1346;SDS011;667;48.796;9.480;2022-09-03T22:23:13;2.43;;;2.17;;
1346;SDS011;667;48.796;9.480;2022-09-03T22:28:14;2.30;;;2.10;;
1346;SDS011;667;48.796;9.480;2022-09-03T22:36:36;2.30;;;1.87;;
1346;SDS011;667;48.796;9.480;2022-09-03T22:41:59;2.40;;;1.97;;
1346;SDS011;667;48.796;9.480;2022-09-03T22:45:03;2.60;;;2.10;;
1346;SDS011;667;48.796;9.480;2022-09-03T22:50:03;2.33;;;2.13;;